createdAt,value
2019-06-07T00:01:57.328Z,56.10
2019-06-07T00:04:27.059Z,54.13
2019-06-07T00:06:56.793Z,53.20
2019-06-07T00:09:26.501Z,56.50
2019-06-07T00:11:56.181Z,54.60
2019-06-07T00:14:27.299Z,52.33
2019-06-07T00:16:57.067Z,52.63
2019-06-07T00:19:26.717Z,51.50
2019-06-07T00:22:16.569Z,53.27
2019-06-07T00:24:51.696Z,54.60
2019-06-07T00:27:22.534Z,51.73
2019-06-07T00:29:54.394Z,52.33
2019-06-07T00:32:24.078Z,52.73
2019-06-07T00:34:53.779Z,53.47
2019-06-07T00:37:25.587Z,52.87
2019-06-07T00:40:13.516Z,51.47
2019-06-07T00:42:28.235Z,52.53
2019-06-07T00:44:57.989Z,52.90
2019-06-07T00:47:29.231Z,53.90
2019-06-07T00:50:00.181Z,51.53
2019-06-07T00:55:01.422Z,52.13
2019-06-07T00:57:32.790Z,51.90
2019-06-07T01:00:02.997Z,55.57
2019-06-07T01:02:32.768Z,53.70
2019-06-07T01:05:04.092Z,52.20
2019-06-07T01:07:34.023Z,53.63
2019-06-07T01:10:05.618Z,53.77
2019-06-07T01:12:35.413Z,51.47
2019-06-07T01:15:08.603Z,53.60
2019-06-07T01:17:49.936Z,53.00
2019-06-07T01:20:12.214Z,53.23
2019-06-07T01:22:41.959Z,54.50
2019-06-07T01:25:15.739Z,54.50
2019-06-07T01:27:45.836Z,54.33
2019-06-07T01:30:18.850Z,55.33
2019-06-07T01:32:49.567Z,52.10
2019-06-07T01:35:20.637Z,52.83
2019-06-07T01:37:50.785Z,51.77
2019-06-07T01:40:26.769Z,53.63
2019-06-07T01:42:52.669Z,53.03
2019-06-07T01:45:23.888Z,55.10
2019-06-07T01:47:56.012Z,53.57
2019-06-07T01:50:27.345Z,52.60
2019-06-07T01:52:57.030Z,52.10
2019-06-07T01:55:31.499Z,54.33
2019-06-07T01:57:58.182Z,52.33
2019-06-07T02:00:32.290Z,51.97
2019-06-07T02:03:00.863Z,52.37
2019-06-07T02:05:32.361Z,54.70
2019-06-07T02:08:02.944Z,53.77
2019-06-07T02:10:33.620Z,53.03
2019-06-07T02:13:03.632Z,53.97
2019-06-07T02:15:36.736Z,52.13
2019-06-07T02:18:05.357Z,52.73
2019-06-07T02:20:36.167Z,52.60
2019-06-07T02:23:06.183Z,51.00
2019-06-07T02:25:46.607Z,51.30
2019-06-07T02:28:27.328Z,49.63
2019-06-07T02:30:58.603Z,51.83
2019-06-07T02:33:16.199Z,51.13
2019-06-07T02:35:45.878Z,50.40
2019-06-07T02:38:17.326Z,50.93
2019-06-07T02:40:46.995Z,51.00
2019-06-07T02:43:16.671Z,52.33
2019-06-07T02:45:46.975Z,51.03
2019-06-07T02:48:16.723Z,51.23
2019-06-07T02:50:46.835Z,52.23
2019-06-07T02:53:16.561Z,51.57
2019-06-07T02:56:34.316Z,52.53
2019-06-07T02:58:20.179Z,52.07
2019-06-07T03:01:07.055Z,53.30
2019-06-07T03:03:22.826Z,52.60
2019-06-07T03:05:52.502Z,52.83
2019-06-07T03:08:22.201Z,51.63
2019-06-07T03:10:52.084Z,51.20
2019-06-07T03:13:23.659Z,51.57
2019-06-07T03:15:55.802Z,52.40
2019-06-07T03:18:43.231Z,51.10
2019-06-07T03:21:15.462Z,50.83
2019-06-07T03:23:47.166Z,52.07
2019-06-07T03:26:18.455Z,54.10
2019-06-07T03:28:49.138Z,52.73
2019-06-07T03:31:18.835Z,52.73
2019-06-07T03:33:48.544Z,51.27
2019-06-07T03:36:23.895Z,52.77
2019-06-07T03:38:49.897Z,53.23
2019-06-07T03:41:19.678Z,55.63
2019-06-07T03:43:49.416Z,54.33
2019-06-07T03:46:19.115Z,52.27
2019-06-07T03:48:48.811Z,51.27
2019-06-07T03:51:25.306Z,54.63
2019-06-07T03:53:49.983Z,53.57
2019-06-07T03:56:19.668Z,54.33
2019-06-07T03:58:50.537Z,51.87
2019-06-07T04:01:20.517Z,53.07
2019-06-07T04:03:51.724Z,52.40
2019-06-07T04:06:21.809Z,53.13
2019-06-07T04:08:51.475Z,53.70
2019-06-07T04:11:21.157Z,54.33
2019-06-07T04:13:50.854Z,51.97
2019-06-07T04:16:20.507Z,53.97
2019-06-07T04:18:50.266Z,52.90
2019-06-07T04:21:19.974Z,53.07
2019-06-07T04:23:49.666Z,53.53
2019-06-07T04:26:19.359Z,52.53
2019-06-07T04:29:31.502Z,53.23
2019-06-07T04:31:20.508Z,52.70
2019-06-07T04:33:50.622Z,54.27
2019-06-07T04:36:39.377Z,55.47
2019-06-07T04:38:55.375Z,55.03
2019-06-07T04:41:28.725Z,53.87
2019-06-07T04:44:02.631Z,52.07
2019-06-07T04:46:35.228Z,53.10
2019-06-07T04:49:05.503Z,58.00
2019-06-07T04:51:40.768Z,59.27
2019-06-07T04:54:09.786Z,58.20
2019-06-07T04:56:44.264Z,58.07
2019-06-07T05:00:00.170Z,58.00
2019-06-07T05:01:45.248Z,58.23
2019-06-07T05:04:14.960Z,55.67
2019-06-07T05:06:44.712Z,55.83
2019-06-07T05:09:14.392Z,54.90
2019-06-07T05:11:45.028Z,56.07
2019-06-07T05:14:15.236Z,55.80
2019-06-07T05:16:45.006Z,56.67
2019-06-07T05:19:14.782Z,55.40
2019-06-07T05:22:02.847Z,55.37
2019-06-07T05:24:15.866Z,56.07
2019-06-07T05:26:45.583Z,55.50
2019-06-07T05:29:16.600Z,58.23
2019-06-07T05:31:46.983Z,56.77
2019-06-07T05:34:16.696Z,55.60
2019-06-07T05:37:08.438Z,57.33
2019-06-07T05:39:17.790Z,55.70
2019-06-07T05:41:48.632Z,55.67
2019-06-07T05:44:18.311Z,57.77
2019-06-07T05:46:47.974Z,57.17
2019-06-07T05:49:17.713Z,57.27
2019-06-07T05:51:47.783Z,57.43
2019-06-07T05:54:17.523Z,58.43
2019-06-07T05:56:47.742Z,56.90
2019-06-07T05:59:17.555Z,55.60
2019-06-07T06:01:58.971Z,57.30
2019-06-07T06:04:18.725Z,59.67
2019-06-07T06:06:48.413Z,57.67
2019-06-07T06:09:18.083Z,59.07
2019-06-07T06:11:59.714Z,58.30
2019-06-07T06:14:19.184Z,57.60
2019-06-07T06:16:50.055Z,59.40
2019-06-07T06:19:19.928Z,57.77
2019-06-07T06:21:54.432Z,58.93
2019-06-07T06:24:24.107Z,61.87
2019-06-07T06:27:12.389Z,59.30
2019-06-07T06:29:26.710Z,57.17
2019-06-07T06:32:40.525Z,56.30
2019-06-07T06:34:27.833Z,57.80
2019-06-07T06:36:57.507Z,57.03
2019-06-07T06:39:27.177Z,56.67
2019-06-07T06:42:03.331Z,56.37
2019-06-07T06:44:28.268Z,57.47
2019-06-07T06:46:58.666Z,60.43
2019-06-07T06:49:28.454Z,60.07
2019-06-07T06:51:58.124Z,58.87
2019-06-07T06:54:40.111Z,59.87
2019-06-07T06:57:18.102Z,61.33
2019-06-07T06:59:39.251Z,60.23
2019-06-07T07:02:04.225Z,61.33
2019-06-07T07:04:34.231Z,60.40
2019-06-07T07:07:04.221Z,64.33
2019-06-07T07:09:34.798Z,61.87
2019-06-07T07:12:11.690Z,64.03
2019-06-07T07:14:46.991Z,62.33
2019-06-07T07:17:14.875Z,61.00
2019-06-07T07:19:47.962Z,65.40
2019-06-07T07:22:16.052Z,62.30
2019-06-07T07:24:47.047Z,65.70
2019-06-07T07:27:17.297Z,62.33
2019-06-07T07:29:52.560Z,63.90
2019-06-07T07:32:18.758Z,60.93
2019-06-07T07:34:52.670Z,63.40
2019-06-07T07:37:27.080Z,60.10
2019-06-07T07:40:21.123Z,63.07
2019-06-07T07:42:33.904Z,62.67
2019-06-07T07:45:09.057Z,64.90
2019-06-07T07:47:58.249Z,61.20
2019-06-07T07:50:11.192Z,59.70
2019-06-07T07:52:45.826Z,65.87
2019-06-07T07:55:16.884Z,62.60
2019-06-07T07:57:58.072Z,63.57
2019-06-07T08:00:50.384Z,67.47
2019-06-07T08:02:59.616Z,61.63
2019-06-07T08:05:41.888Z,63.97
2019-06-07T08:08:04.755Z,64.93
2019-06-07T08:10:31.705Z,63.50
2019-06-07T08:13:22.162Z,62.20
2019-06-07T08:15:34.618Z,64.33
2019-06-07T08:18:04.894Z,63.53
2019-06-07T08:20:34.866Z,63.37
2019-06-07T08:23:04.834Z,66.90
2019-06-07T08:25:34.526Z,65.77
2019-06-07T08:28:04.564Z,67.13
2019-06-07T08:30:50.279Z,70.43
2019-06-07T08:33:25.211Z,67.67
2019-06-07T08:38:25.808Z,64.23
2019-06-07T08:40:42.856Z,65.43
2019-06-07T08:43:20.331Z,63.73
2019-06-07T08:45:44.444Z,63.23
2019-06-07T08:48:27.605Z,63.30
2019-06-07T08:50:45.515Z,65.77
2019-06-07T08:53:15.276Z,63.90
2019-06-07T08:55:44.955Z,63.97
2019-06-07T08:58:14.634Z,60.77
2019-06-07T09:00:47.047Z,65.03
2019-06-07T09:03:15.904Z,63.63
2019-06-07T09:05:45.547Z,63.63
2019-06-07T09:08:29.243Z,64.97
2019-06-07T09:10:46.677Z,61.70
2019-06-07T09:13:17.220Z,64.07
2019-06-07T09:15:46.945Z,64.17
2019-06-07T09:18:41.342Z,63.30
2019-06-07T09:20:49.831Z,62.87
2019-06-07T09:23:21.921Z,62.73
2019-06-07T09:26:00.845Z,65.30
2019-06-07T09:28:26.130Z,65.67
2019-06-07T09:30:59.258Z,64.10
2019-06-07T09:33:27.462Z,64.90
2019-06-07T09:35:58.636Z,65.17
2019-06-07T09:38:28.511Z,61.00
2019-06-07T09:41:00.500Z,64.13
2019-06-07T09:44:00.778Z,66.40
2019-06-07T09:46:09.704Z,63.47
2019-06-07T09:49:09.712Z,65.47
2019-06-07T09:51:13.266Z,66.07
2019-06-07T09:53:37.092Z,67.80
2019-06-07T09:56:11.189Z,67.13
2019-06-07T09:58:54.461Z,63.97
2019-06-07T10:01:13.768Z,63.93
2019-06-07T10:03:42.001Z,62.73
2019-06-07T10:06:13.675Z,68.13
2019-06-07T10:11:16.258Z,68.03
2019-06-07T10:13:46.013Z,61.27
2019-06-07T10:16:15.712Z,62.63
2019-06-07T10:18:45.400Z,64.13
2019-06-07T10:21:15.709Z,64.07
2019-06-07T10:23:45.554Z,60.43
2019-06-07T10:26:15.262Z,59.57
2019-06-07T10:28:44.928Z,58.13
2019-06-07T10:31:14.667Z,58.63
2019-06-07T10:33:44.680Z,61.10
2019-06-07T10:36:14.431Z,59.17
2019-06-07T10:38:44.111Z,60.47
2019-06-07T10:41:13.918Z,57.60
2019-06-07T10:43:43.575Z,58.70
2019-06-07T10:46:13.363Z,58.67
2019-06-07T10:48:43.053Z,59.83
2019-06-07T10:51:14.707Z,62.23
2019-06-07T10:53:44.621Z,60.97
2019-06-07T10:56:14.328Z,60.70
2019-06-07T10:58:44.231Z,61.07
2019-06-07T11:01:14.518Z,62.20
2019-06-07T11:03:44.728Z,60.40
2019-06-07T11:06:14.458Z,58.40
2019-06-07T11:08:45.692Z,60.47
2019-06-07T11:11:15.464Z,56.47
2019-06-07T11:13:45.151Z,56.77
2019-06-07T11:16:16.454Z,61.27
2019-06-07T11:18:46.360Z,56.97
2019-06-07T11:21:16.137Z,59.70
2019-06-07T11:23:46.830Z,58.53
2019-06-07T11:26:16.645Z,59.57
2019-06-07T11:28:47.862Z,59.10
2019-06-07T11:31:19.294Z,57.40
2019-06-07T11:33:50.351Z,57.93
2019-06-07T11:36:20.115Z,57.27
2019-06-07T11:38:49.926Z,60.40
2019-06-07T11:41:19.625Z,58.53
2019-06-07T11:43:49.288Z,58.60
2019-06-07T11:46:18.960Z,58.53
2019-06-07T11:48:48.659Z,58.03
2019-06-07T11:51:18.938Z,59.23
2019-06-07T11:53:51.638Z,60.00
2019-06-07T11:56:22.713Z,58.03
2019-06-07T11:58:52.467Z,59.67
2019-06-07T12:01:22.339Z,57.87
2019-06-07T12:03:54.434Z,59.27
2019-06-07T12:06:24.099Z,58.10
2019-06-07T12:08:53.765Z,59.97
2019-06-07T12:11:23.475Z,58.07
2019-06-07T12:13:54.400Z,57.60
2019-06-07T12:16:24.085Z,60.03
2019-06-07T12:18:53.823Z,58.10
2019-06-07T12:21:23.495Z,57.27
2019-06-07T12:23:53.175Z,58.33
2019-06-07T12:26:22.850Z,59.23
2019-06-07T12:28:54.572Z,58.13
2019-06-07T12:31:26.165Z,62.20
2019-06-07T12:33:55.857Z,61.73
2019-06-07T12:36:25.744Z,60.50
2019-06-07T12:38:55.438Z,60.90
2019-06-07T12:41:25.436Z,62.13
2019-06-07T12:43:55.090Z,60.80
2019-06-07T12:46:28.534Z,61.43
2019-06-07T12:48:56.263Z,61.03
2019-06-07T12:51:25.933Z,64.93
2019-06-07T12:53:55.612Z,61.23
2019-06-07T12:56:25.308Z,63.33
2019-06-07T12:58:54.991Z,60.37
2019-06-07T13:01:26.091Z,65.70
2019-06-07T13:03:55.787Z,63.03
2019-06-07T13:06:27.996Z,63.07
2019-06-07T13:08:57.858Z,59.30
2019-06-07T13:11:31.275Z,59.60
2019-06-07T13:13:58.919Z,60.37
2019-06-07T13:16:30.661Z,58.87
2019-06-07T13:19:00.384Z,59.80
2019-06-07T13:21:31.689Z,59.63
2019-06-07T13:24:02.944Z,59.67
2019-06-07T13:26:32.644Z,58.93
2019-06-07T13:29:02.307Z,60.53
2019-06-07T13:31:34.133Z,58.70
2019-06-07T13:34:04.408Z,61.80
2019-06-07T13:36:34.160Z,59.70
2019-06-07T13:39:06.970Z,61.03
2019-06-07T13:41:42.814Z,63.83
2019-06-07T13:44:08.135Z,59.27
2019-06-07T13:46:38.781Z,61.33
2019-06-07T13:49:08.481Z,60.30
2019-06-07T13:51:38.486Z,61.17
2019-06-07T13:54:09.570Z,62.30
2019-06-07T13:57:00.792Z,62.63
2019-06-07T13:59:12.506Z,58.87
2019-06-07T14:01:42.290Z,62.13
2019-06-07T14:04:12.776Z,58.77
2019-06-07T14:06:43.917Z,61.73
2019-06-07T14:09:13.685Z,60.53
2019-06-07T14:11:50.551Z,60.07
2019-06-07T14:14:16.540Z,61.50
2019-06-07T14:16:46.302Z,60.30
2019-06-07T14:19:17.651Z,62.47
2019-06-07T14:21:47.391Z,60.97
2019-06-07T14:24:17.073Z,63.17
2019-06-07T14:26:48.377Z,61.93
2019-06-07T14:29:18.268Z,61.47
2019-06-07T14:31:48.087Z,61.50
2019-06-07T14:34:19.405Z,63.30
2019-06-07T14:36:51.900Z,62.53
2019-06-07T14:39:22.960Z,60.80
2019-06-07T14:42:08.057Z,61.00
2019-06-07T14:44:26.108Z,61.37
2019-06-07T14:46:55.886Z,62.87
2019-06-07T14:49:26.396Z,62.10
2019-06-07T14:51:56.196Z,65.10
2019-06-07T14:54:27.439Z,63.17
2019-06-07T14:56:57.410Z,63.20
2019-06-07T14:59:28.413Z,61.53
2019-06-07T15:01:58.243Z,62.07
2019-06-07T15:04:28.979Z,61.50
2019-06-07T15:06:58.643Z,64.17
2019-06-07T15:09:29.024Z,61.47
2019-06-07T15:11:58.918Z,63.80
2019-06-07T15:14:29.287Z,62.23
2019-06-07T15:16:59.373Z,62.60
2019-06-07T15:19:29.189Z,63.03
2019-06-07T15:21:59.059Z,61.73
2019-06-07T15:24:32.563Z,64.17
2019-06-07T15:27:00.141Z,62.80
2019-06-07T15:29:29.870Z,62.33
2019-06-07T15:32:01.934Z,64.23
2019-06-07T15:34:32.380Z,63.10
2019-06-07T15:37:02.188Z,63.17
2019-06-07T15:39:32.813Z,62.57
2019-06-07T15:42:02.495Z,64.43
2019-06-07T15:44:33.325Z,64.10
2019-06-07T15:47:03.323Z,63.73
2019-06-07T15:49:34.159Z,62.80
2019-06-07T15:52:04.238Z,66.97
2019-06-07T15:54:35.084Z,64.57
2019-06-07T15:57:04.838Z,65.67
2019-06-07T15:59:35.812Z,64.70
2019-06-07T16:02:07.600Z,61.63
2019-06-07T16:04:37.689Z,61.93
2019-06-07T16:07:07.537Z,62.03
2019-06-07T16:09:38.492Z,62.07
2019-06-07T16:12:08.247Z,62.80
2019-06-07T16:14:39.096Z,64.30
2019-06-07T16:17:09.304Z,63.63
2019-06-07T16:19:42.862Z,63.23
2019-06-07T16:22:10.526Z,65.10
2019-06-07T16:24:40.222Z,62.17
2019-06-07T16:27:09.908Z,66.43
2019-06-07T16:29:40.628Z,65.33
2019-06-07T16:32:10.458Z,63.43
2019-06-07T16:34:41.841Z,63.73
2019-06-07T16:37:11.660Z,63.67
2019-06-07T16:39:42.845Z,64.93
2019-06-07T16:42:12.526Z,64.80
2019-06-07T16:44:42.600Z,63.13
2019-06-07T16:47:12.339Z,64.10
2019-06-07T16:49:42.953Z,67.13
2019-06-07T16:52:12.776Z,63.40
2019-06-07T16:54:43.598Z,64.57
2019-06-07T16:57:13.294Z,66.23
2019-06-07T16:59:47.681Z,66.87
2019-06-07T17:02:14.609Z,66.63
2019-06-07T17:04:45.567Z,64.43
2019-06-07T17:07:15.290Z,65.97
2019-06-07T17:09:47.234Z,67.93
2019-06-07T17:12:16.611Z,70.50
2019-06-07T17:14:48.704Z,67.87
2019-06-07T17:17:20.709Z,67.73
2019-06-07T17:19:56.834Z,67.13
2019-06-07T17:22:30.893Z,63.73
2019-06-07T17:25:00.637Z,65.50
2019-06-07T17:27:31.725Z,66.67
2019-06-07T17:30:01.504Z,66.10
2019-06-07T17:32:47.750Z,64.73
2019-06-07T17:35:07.013Z,64.67
2019-06-07T17:37:38.224Z,65.23
2019-06-07T17:40:09.391Z,65.37
2019-06-07T17:42:39.057Z,65.93
2019-06-07T17:45:12.098Z,64.10
2019-06-07T17:47:45.819Z,67.33
2019-06-07T17:50:16.431Z,65.23
2019-06-07T17:52:46.243Z,65.77
2019-06-07T17:55:18.741Z,66.60
2019-06-07T17:57:48.927Z,68.40
2019-06-07T18:00:29.022Z,65.63
2019-06-07T18:02:53.032Z,66.90
2019-06-07T18:05:23.350Z,66.00
2019-06-07T18:07:54.865Z,68.20
2019-06-07T18:10:39.682Z,69.30
2019-06-07T18:13:09.365Z,66.40
2019-06-07T18:15:53.268Z,67.63
2019-06-07T18:18:19.651Z,67.00
2019-06-07T18:20:51.633Z,66.07
2019-06-07T18:23:21.937Z,65.80
2019-06-07T18:25:52.561Z,66.03
2019-06-07T18:28:22.358Z,68.23
2019-06-07T18:30:52.815Z,64.67
2019-06-07T18:33:22.755Z,65.90
2019-06-07T18:35:53.317Z,66.90
2019-06-07T18:38:23.242Z,66.47
2019-06-07T18:40:53.308Z,68.13
2019-06-07T18:43:23.230Z,65.50
2019-06-07T18:45:53.559Z,66.00
2019-06-07T18:48:23.502Z,66.20
2019-06-07T18:50:54.698Z,66.93
2019-06-07T18:53:24.473Z,69.13
2019-06-07T18:55:54.180Z,66.43
2019-06-07T18:58:23.942Z,67.37
2019-06-07T19:00:53.871Z,67.37
2019-06-07T19:03:23.613Z,66.77
2019-06-07T19:05:54.274Z,68.80
2019-06-07T19:08:24.085Z,67.90
2019-06-07T19:10:54.806Z,65.97
2019-06-07T19:13:24.632Z,65.50
2019-06-07T19:15:55.452Z,66.57
2019-06-07T19:18:25.359Z,65.10
2019-06-07T19:20:56.493Z,65.40
2019-06-07T19:23:27.806Z,67.20
2019-06-07T19:25:58.864Z,65.10
2019-06-07T19:28:30.021Z,64.97
2019-06-07T19:31:03.586Z,64.50
2019-06-07T19:33:48.360Z,70.17
2019-06-07T19:36:07.974Z,71.87
2019-06-07T19:38:37.953Z,74.93
2019-06-07T19:41:19.147Z,71.90
2019-06-07T19:43:39.070Z,72.43
2019-06-07T19:46:08.791Z,70.33
2019-06-07T19:48:38.555Z,69.07
2019-06-07T19:51:09.689Z,69.63
2019-06-07T19:53:39.378Z,65.13
2019-06-07T19:56:09.297Z,63.77
2019-06-07T19:58:38.947Z,65.17
2019-06-07T20:01:08.648Z,65.17
2019-06-07T20:03:38.329Z,67.77
2019-06-07T20:06:07.999Z,65.30
2019-06-07T20:08:37.914Z,66.10
2019-06-07T20:11:07.576Z,66.37
2019-06-07T20:13:37.262Z,66.03
2019-06-07T20:16:07.972Z,63.67
2019-06-07T20:18:37.795Z,64.27
2019-06-07T20:21:09.275Z,64.53
2019-06-07T20:23:39.202Z,63.47
2019-06-07T20:26:08.954Z,61.50
2019-06-07T20:28:38.796Z,63.00
2019-06-07T20:31:09.889Z,63.43
2019-06-07T20:33:41.111Z,62.77
2019-06-07T20:36:10.795Z,61.13
2019-06-07T20:38:40.584Z,62.80
2019-06-07T20:41:10.258Z,64.13
2019-06-07T20:43:39.947Z,62.03
2019-06-07T20:46:09.722Z,62.90
2019-06-07T20:48:39.508Z,61.43
2019-06-07T20:51:09.320Z,61.17
2019-06-07T20:53:39.221Z,60.07
2019-06-07T20:56:09.374Z,61.37
2019-06-07T20:58:39.085Z,60.13
2019-06-07T21:01:09.115Z,60.80
2019-06-07T21:03:38.728Z,68.10
2019-06-07T21:06:09.867Z,68.00
2019-06-07T21:08:39.945Z,70.87
2019-06-07T21:11:09.874Z,67.60
2019-06-07T21:13:41.308Z,69.27
2019-06-07T21:16:11.129Z,65.60
2019-06-07T21:18:40.813Z,68.53
2019-06-07T21:21:10.676Z,65.53
2019-06-07T21:23:40.380Z,66.30
2019-06-07T21:26:11.053Z,61.70
2019-06-07T21:28:40.916Z,62.73
2019-06-07T21:31:10.643Z,61.40
2019-06-07T21:33:40.361Z,62.33
2019-06-07T21:36:10.060Z,61.03
2019-06-07T21:38:40.512Z,61.37
2019-06-07T21:41:10.617Z,60.30
2019-06-07T21:43:42.025Z,62.30
2019-06-07T21:46:19.626Z,59.63
2019-06-07T21:48:43.132Z,59.83
2019-06-07T21:51:12.819Z,58.63
2019-06-07T21:53:42.602Z,61.00
2019-06-07T21:56:13.383Z,59.00
2019-06-07T21:58:44.934Z,60.60
2019-06-07T22:01:19.082Z,58.53
2019-06-07T22:03:48.768Z,57.33
2019-06-07T22:06:20.439Z,56.90
2019-06-07T22:08:51.523Z,57.03
2019-06-07T22:11:21.176Z,55.83
2019-06-07T22:13:50.860Z,55.20
2019-06-07T22:16:28.548Z,59.03
2019-06-07T22:18:51.946Z,55.17
2019-06-07T22:21:21.646Z,55.93
2019-06-07T22:23:51.416Z,55.73
2019-06-07T22:26:23.034Z,56.97
2019-06-07T22:28:52.714Z,55.17
2019-06-07T22:31:22.880Z,55.63
2019-06-07T22:33:52.584Z,56.27
2019-06-07T22:36:22.271Z,57.17
2019-06-07T22:38:52.145Z,56.47
2019-06-07T22:41:21.808Z,54.77
2019-06-07T22:43:51.667Z,56.17
2019-06-07T22:46:36.374Z,56.50
2019-06-07T22:48:52.961Z,54.17
2019-06-07T22:51:22.783Z,55.60
2019-06-07T22:53:52.484Z,55.30
2019-06-07T22:56:23.806Z,57.93
2019-06-07T22:58:53.455Z,52.27
2019-06-07T23:01:23.448Z,55.63
2019-06-07T23:03:53.113Z,52.53
2019-06-07T23:06:22.819Z,55.93
2019-06-07T23:08:52.465Z,54.93
2019-06-07T23:11:22.170Z,53.27
2019-06-07T23:13:51.853Z,56.43
2019-06-07T23:16:21.627Z,53.63
2019-06-07T23:18:51.363Z,53.07
2019-06-07T23:21:21.042Z,53.97
2019-06-07T23:23:50.905Z,52.70
2019-06-07T23:26:20.724Z,53.00
2019-06-07T23:28:50.644Z,53.57
2019-06-07T23:31:21.810Z,52.87
2019-06-07T23:33:51.521Z,52.93
2019-06-07T23:36:21.467Z,53.33
2019-06-07T23:38:51.455Z,53.43
2019-06-07T23:41:22.326Z,53.70
2019-06-07T23:43:52.169Z,53.53
2019-06-07T23:46:23.630Z,53.00
2019-06-07T23:48:53.367Z,53.90
2019-06-07T23:51:23.096Z,54.20
2019-06-07T23:53:53.409Z,54.53
2019-06-07T23:56:23.197Z,52.47
2019-06-07T23:58:52.879Z,52.87
